sensor_id;sensor_type;location;lat;lon;timestamp;P1;durP1;ratioP1;P2;durP2;ratioP2
74229;SDS011;62589;12.568;99.958;2024-03-22T00:02:15;28.10;;;19.83;;
74229;SDS011;62589;12.568;99.958;2024-03-22T00:04:42;24.42;;;18.73;;
74229;SDS011;62589;12.568;99.958;2024-03-22T00:07:08;28.05;;;20.38;;
74229;SDS011;62589;12.568;99.958;2024-03-22T00:09:35;26.90;;;19.30;;
74229;SDS011;62589;12.568;99.958;2024-03-22T00:12:01;24.65;;;19.83;;
74229;SDS011;62589;12.568;99.958;2024-03-22T00:14:29;26.20;;;20.48;;
74229;SDS011;62589;12.568;99.958;2024-03-22T00:16:56;26.08;;;20.58;;
74229;SDS011;62589;12.568;99.958;2024-03-22T00:19:22;25.17;;;20.60;;
74229;SDS011;62589;12.568;99.958;2024-03-22T00:21:49;25.00;;;20.60;;
74229;SDS011;62589;12.568;99.958;2024-03-22T00:24:16;30.45;;;22.17;;
74229;SDS011;62589;12.568;99.958;2024-03-22T00:26:43;28.60;;;21.98;;
74229;SDS011;62589;12.568;99.958;2024-03-22T00:29:09;27.27;;;20.83;;
74229;SDS011;62589;12.568;99.958;2024-03-22T00:31:36;27.42;;;20.10;;
74229;SDS011;62589;12.568;99.958;2024-03-22T00:34:03;25.98;;;20.58;;
74229;SDS011;62589;12.568;99.958;2024-03-22T00:36:29;26.30;;;21.05;;
74229;SDS011;62589;12.568;99.958;2024-03-22T00:38:56;27.50;;;20.52;;
74229;SDS011;62589;12.568;99.958;2024-03-22T00:41:23;23.90;;;18.98;;
74229;SDS011;62589;12.568;99.958;2024-03-22T00:43:49;26.58;;;20.90;;
74229;SDS011;62589;12.568;99.958;2024-03-22T00:46:16;25.98;;;19.88;;
74229;SDS011;62589;12.568;99.958;2024-03-22T00:48:43;26.52;;;19.20;;
74229;SDS011;62589;12.568;99.958;2024-03-22T00:51:09;25.10;;;18.83;;
74229;SDS011;62589;12.568;99.958;2024-03-22T00:53:36;24.33;;;19.02;;
74229;SDS011;62589;12.568;99.958;2024-03-22T00:56:03;26.08;;;19.60;;
74229;SDS011;62589;12.568;99.958;2024-03-22T00:58:30;27.42;;;19.75;;
74229;SDS011;62589;12.568;99.958;2024-03-22T01:00:56;24.70;;;19.55;;
74229;SDS011;62589;12.568;99.958;2024-03-22T01:03:23;25.92;;;19.38;;
74229;SDS011;62589;12.568;99.958;2024-03-22T01:05:50;27.02;;;20.88;;
74229;SDS011;62589;12.568;99.958;2024-03-22T01:08:16;24.17;;;19.63;;
74229;SDS011;62589;12.568;99.958;2024-03-22T01:10:43;24.75;;;19.63;;
74229;SDS011;62589;12.568;99.958;2024-03-22T01:13:10;27.25;;;19.85;;
74229;SDS011;62589;12.568;99.958;2024-03-22T01:15:36;26.83;;;19.73;;
74229;SDS011;62589;12.568;99.958;2024-03-22T01:18:03;28.83;;;19.83;;
74229;SDS011;62589;12.568;99.958;2024-03-22T01:20:30;23.13;;;19.17;;
74229;SDS011;62589;12.568;99.958;2024-03-22T01:22:58;24.17;;;18.23;;
74229;SDS011;62589;12.568;99.958;2024-03-22T01:25:26;24.60;;;18.63;;
74229;SDS011;62589;12.568;99.958;2024-03-22T01:27:54;24.85;;;20.13;;
74229;SDS011;62589;12.568;99.958;2024-03-22T01:30:21;26.50;;;20.20;;
74229;SDS011;62589;12.568;99.958;2024-03-22T01:32:48;27.95;;;20.25;;
74229;SDS011;62589;12.568;99.958;2024-03-22T01:35:15;26.90;;;20.25;;
74229;SDS011;62589;12.568;99.958;2024-03-22T01:37:42;27.05;;;21.10;;
74229;SDS011;62589;12.568;99.958;2024-03-22T01:40:08;26.65;;;20.38;;
74229;SDS011;62589;12.568;99.958;2024-03-22T01:42:35;27.35;;;20.20;;
74229;SDS011;62589;12.568;99.958;2024-03-22T01:45:02;26.10;;;19.45;;
74229;SDS011;62589;12.568;99.958;2024-03-22T01:47:29;23.98;;;19.52;;
74229;SDS011;62589;12.568;99.958;2024-03-22T01:49:56;25.33;;;19.17;;
74229;SDS011;62589;12.568;99.958;2024-03-22T01:52:23;26.08;;;19.15;;
74229;SDS011;62589;12.568;99.958;2024-03-22T01:54:50;22.65;;;17.45;;
74229;SDS011;62589;12.568;99.958;2024-03-22T01:57:17;23.63;;;19.05;;
74229;SDS011;62589;12.568;99.958;2024-03-22T01:59:43;22.05;;;18.77;;
74229;SDS011;62589;12.568;99.958;2024-03-22T02:02:12;21.05;;;17.17;;
74229;SDS011;62589;12.568;99.958;2024-03-22T02:04:38;21.88;;;17.70;;
74229;SDS011;62589;12.568;99.958;2024-03-22T02:07:06;27.65;;;18.83;;
74229;SDS011;62589;12.568;99.958;2024-03-22T02:09:32;22.83;;;18.05;;
74229;SDS011;62589;12.568;99.958;2024-03-22T02:11:59;24.98;;;18.15;;
74229;SDS011;62589;12.568;99.958;2024-03-22T02:14:26;28.60;;;21.13;;
74229;SDS011;62589;12.568;99.958;2024-03-22T02:16:52;27.45;;;19.77;;
74229;SDS011;62589;12.568;99.958;2024-03-22T02:19:19;29.70;;;19.55;;
74229;SDS011;62589;12.568;99.958;2024-03-22T02:21:46;23.55;;;19.08;;
74229;SDS011;62589;12.568;99.958;2024-03-22T02:24:12;24.60;;;18.85;;
74229;SDS011;62589;12.568;99.958;2024-03-22T02:26:39;23.17;;;18.17;;
74229;SDS011;62589;12.568;99.958;2024-03-22T02:29:05;22.75;;;18.05;;
74229;SDS011;62589;12.568;99.958;2024-03-22T02:31:32;22.33;;;16.95;;
74229;SDS011;62589;12.568;99.958;2024-03-22T02:33:59;21.05;;;16.73;;
74229;SDS011;62589;12.568;99.958;2024-03-22T02:36:26;22.05;;;17.42;;
74229;SDS011;62589;12.568;99.958;2024-03-22T02:38:53;21.58;;;17.83;;
74229;SDS011;62589;12.568;99.958;2024-03-22T02:41:21;22.05;;;16.90;;
74229;SDS011;62589;12.568;99.958;2024-03-22T02:43:47;19.35;;;16.17;;
74229;SDS011;62589;12.568;99.958;2024-03-22T02:46:14;22.15;;;18.02;;
74229;SDS011;62589;12.568;99.958;2024-03-22T02:48:41;21.45;;;17.73;;
74229;SDS011;62589;12.568;99.958;2024-03-22T02:51:07;21.67;;;18.98;;
74229;SDS011;62589;12.568;99.958;2024-03-22T02:53:34;24.17;;;18.05;;
74229;SDS011;62589;12.568;99.958;2024-03-22T02:56:00;20.58;;;16.75;;
74229;SDS011;62589;12.568;99.958;2024-03-22T02:58:27;21.42;;;17.42;;
74229;SDS011;62589;12.568;99.958;2024-03-22T03:00:54;20.88;;;17.50;;
74229;SDS011;62589;12.568;99.958;2024-03-22T03:03:20;23.20;;;17.88;;
74229;SDS011;62589;12.568;99.958;2024-03-22T03:05:47;20.02;;;16.80;;
74229;SDS011;62589;12.568;99.958;2024-03-22T03:08:14;20.65;;;16.58;;
74229;SDS011;62589;12.568;99.958;2024-03-22T03:10:40;20.58;;;16.67;;
74229;SDS011;62589;12.568;99.958;2024-03-22T03:13:07;21.33;;;17.20;;
74229;SDS011;62589;12.568;99.958;2024-03-22T03:15:34;22.08;;;15.85;;
74229;SDS011;62589;12.568;99.958;2024-03-22T03:18:00;24.58;;;17.10;;
74229;SDS011;62589;12.568;99.958;2024-03-22T03:20:27;23.30;;;17.00;;
74229;SDS011;62589;12.568;99.958;2024-03-22T03:22:53;21.50;;;17.23;;
74229;SDS011;62589;12.568;99.958;2024-03-22T03:25:21;20.30;;;16.33;;
74229;SDS011;62589;12.568;99.958;2024-03-22T03:27:47;23.05;;;16.58;;
74229;SDS011;62589;12.568;99.958;2024-03-22T03:30:14;21.80;;;16.30;;
74229;SDS011;62589;12.568;99.958;2024-03-22T03:32:40;20.77;;;16.48;;
74229;SDS011;62589;12.568;99.958;2024-03-22T03:35:07;22.90;;;16.60;;
74229;SDS011;62589;12.568;99.958;2024-03-22T03:37:34;20.48;;;16.98;;
74229;SDS011;62589;12.568;99.958;2024-03-22T03:40:00;20.33;;;15.75;;
74229;SDS011;62589;12.568;99.958;2024-03-22T03:42:27;24.65;;;16.52;;
74229;SDS011;62589;12.568;99.958;2024-03-22T03:44:54;20.77;;;16.60;;
74229;SDS011;62589;12.568;99.958;2024-03-22T03:47:20;20.00;;;16.40;;
74229;SDS011;62589;12.568;99.958;2024-03-22T03:49:47;20.75;;;16.42;;
74229;SDS011;62589;12.568;99.958;2024-03-22T03:52:14;19.27;;;15.10;;
74229;SDS011;62589;12.568;99.958;2024-03-22T03:54:41;22.17;;;16.52;;
74229;SDS011;62589;12.568;99.958;2024-03-22T03:57:07;25.77;;;16.92;;
74229;SDS011;62589;12.568;99.958;2024-03-22T03:59:34;19.55;;;15.63;;
74229;SDS011;62589;12.568;99.958;2024-03-22T04:02:00;23.13;;;17.25;;
74229;SDS011;62589;12.568;99.958;2024-03-22T04:04:27;21.58;;;15.88;;
74229;SDS011;62589;12.568;99.958;2024-03-22T04:06:54;18.25;;;15.05;;
74229;SDS011;62589;12.568;99.958;2024-03-22T04:09:20;24.00;;;16.52;;
74229;SDS011;62589;12.568;99.958;2024-03-22T04:11:47;22.85;;;16.60;;
74229;SDS011;62589;12.568;99.958;2024-03-22T04:14:14;22.45;;;16.08;;
74229;SDS011;62589;12.568;99.958;2024-03-22T04:16:40;21.08;;;16.63;;
74229;SDS011;62589;12.568;99.958;2024-03-22T04:19:07;23.73;;;17.25;;
74229;SDS011;62589;12.568;99.958;2024-03-22T04:21:34;19.50;;;15.82;;
74229;SDS011;62589;12.568;99.958;2024-03-22T04:24:00;22.52;;;16.95;;
74229;SDS011;62589;12.568;99.958;2024-03-22T04:26:27;21.83;;;17.33;;
74229;SDS011;62589;12.568;99.958;2024-03-22T04:28:54;23.10;;;16.73;;
74229;SDS011;62589;12.568;99.958;2024-03-22T04:31:20;25.98;;;17.83;;
74229;SDS011;62589;12.568;99.958;2024-03-22T04:33:47;21.67;;;16.92;;
74229;SDS011;62589;12.568;99.958;2024-03-22T04:36:14;25.48;;;17.85;;
74229;SDS011;62589;12.568;99.958;2024-03-22T04:38:41;23.48;;;16.73;;
74229;SDS011;62589;12.568;99.958;2024-03-22T04:41:08;24.40;;;17.02;;
74229;SDS011;62589;12.568;99.958;2024-03-22T04:43:35;24.75;;;16.90;;
74229;SDS011;62589;12.568;99.958;2024-03-22T04:46:01;24.35;;;16.58;;
74229;SDS011;62589;12.568;99.958;2024-03-22T04:48:28;20.48;;;16.80;;
74229;SDS011;62589;12.568;99.958;2024-03-22T04:50:55;24.50;;;17.30;;
74229;SDS011;62589;12.568;99.958;2024-03-22T04:53:22;20.67;;;16.05;;
74229;SDS011;62589;12.568;99.958;2024-03-22T04:55:49;21.35;;;15.80;;
74229;SDS011;62589;12.568;99.958;2024-03-22T04:58:17;22.08;;;15.68;;
74229;SDS011;62589;12.568;99.958;2024-03-22T05:00:45;19.23;;;16.08;;
74229;SDS011;62589;12.568;99.958;2024-03-22T05:03:12;18.30;;;15.38;;
74229;SDS011;62589;12.568;99.958;2024-03-22T05:05:40;24.05;;;16.92;;
74229;SDS011;62589;12.568;99.958;2024-03-22T05:08:07;23.63;;;17.17;;
74229;SDS011;62589;12.568;99.958;2024-03-22T05:10:35;22.90;;;15.40;;
74229;SDS011;62589;12.568;99.958;2024-03-22T05:13:01;20.45;;;15.75;;
74229;SDS011;62589;12.568;99.958;2024-03-22T05:15:28;21.65;;;15.07;;
74229;SDS011;62589;12.568;99.958;2024-03-22T05:17:56;25.55;;;16.20;;
74229;SDS011;62589;12.568;99.958;2024-03-22T05:20:23;20.17;;;14.75;;
74229;SDS011;62589;12.568;99.958;2024-03-22T05:22:50;25.15;;;15.75;;
74229;SDS011;62589;12.568;99.958;2024-03-22T05:25:17;22.02;;;15.30;;
74229;SDS011;62589;12.568;99.958;2024-03-22T05:27:44;22.52;;;15.65;;
74229;SDS011;62589;12.568;99.958;2024-03-22T05:30:12;26.30;;;15.98;;
74229;SDS011;62589;12.568;99.958;2024-03-22T05:32:39;23.15;;;15.13;;
74229;SDS011;62589;12.568;99.958;2024-03-22T05:35:06;21.15;;;16.42;;
74229;SDS011;62589;12.568;99.958;2024-03-22T05:37:34;17.30;;;14.40;;
74229;SDS011;62589;12.568;99.958;2024-03-22T05:40:01;21.85;;;15.75;;
74229;SDS011;62589;12.568;99.958;2024-03-22T05:42:32;21.08;;;14.88;;
74229;SDS011;62589;12.568;99.958;2024-03-22T05:44:58;22.55;;;14.70;;
74229;SDS011;62589;12.568;99.958;2024-03-22T05:47:25;18.65;;;14.13;;
74229;SDS011;62589;12.568;99.958;2024-03-22T05:49:52;23.60;;;15.48;;
74229;SDS011;62589;12.568;99.958;2024-03-22T05:52:18;22.50;;;14.77;;
74229;SDS011;62589;12.568;99.958;2024-03-22T05:54:45;24.48;;;15.70;;
74229;SDS011;62589;12.568;99.958;2024-03-22T05:57:12;21.38;;;14.27;;
74229;SDS011;62589;12.568;99.958;2024-03-22T05:59:38;23.27;;;14.43;;
74229;SDS011;62589;12.568;99.958;2024-03-22T06:02:05;23.00;;;14.57;;
74229;SDS011;62589;12.568;99.958;2024-03-22T06:04:32;23.55;;;15.00;;
74229;SDS011;62589;12.568;99.958;2024-03-22T06:07:00;25.00;;;15.43;;
74229;SDS011;62589;12.568;99.958;2024-03-22T06:09:29;18.55;;;14.60;;
74229;SDS011;62589;12.568;99.958;2024-03-22T06:12:12;28.27;;;14.87;;
74229;SDS011;62589;12.568;99.958;2024-03-22T06:14:39;21.52;;;14.82;;
74229;SDS011;62589;12.568;99.958;2024-03-22T06:17:08;21.38;;;15.07;;
74229;SDS011;62589;12.568;99.958;2024-03-22T06:19:35;21.85;;;14.60;;
74229;SDS011;62589;12.568;99.958;2024-03-22T06:22:02;22.55;;;14.90;;
74229;SDS011;62589;12.568;99.958;2024-03-22T06:24:29;22.50;;;14.90;;
74229;SDS011;62589;12.568;99.958;2024-03-22T06:26:56;23.08;;;14.93;;
74229;SDS011;62589;12.568;99.958;2024-03-22T06:29:23;22.17;;;14.88;;
74229;SDS011;62589;12.568;99.958;2024-03-22T06:31:50;19.95;;;14.10;;
74229;SDS011;62589;12.568;99.958;2024-03-22T06:34:18;22.63;;;15.07;;
74229;SDS011;62589;12.568;99.958;2024-03-22T06:36:45;22.80;;;14.73;;
74229;SDS011;62589;12.568;99.958;2024-03-22T06:39:12;21.92;;;14.75;;
74229;SDS011;62589;12.568;99.958;2024-03-22T06:41:40;21.98;;;14.93;;
74229;SDS011;62589;12.568;99.958;2024-03-22T06:44:06;23.42;;;14.93;;
74229;SDS011;62589;12.568;99.958;2024-03-22T06:46:34;20.40;;;14.30;;
74229;SDS011;62589;12.568;99.958;2024-03-22T06:49:02;23.95;;;14.80;;
74229;SDS011;62589;12.568;99.958;2024-03-22T06:51:29;26.30;;;15.05;;
74229;SDS011;62589;12.568;99.958;2024-03-22T06:53:56;20.65;;;14.75;;
74229;SDS011;62589;12.568;99.958;2024-03-22T06:56:22;24.38;;;15.77;;
74229;SDS011;62589;12.568;99.958;2024-03-22T06:58:49;21.67;;;14.48;;
74229;SDS011;62589;12.568;99.958;2024-03-22T07:01:16;23.33;;;15.10;;
74229;SDS011;62589;12.568;99.958;2024-03-22T07:03:42;20.05;;;14.30;;
74229;SDS011;62589;12.568;99.958;2024-03-22T07:06:11;22.30;;;14.63;;
74229;SDS011;62589;12.568;99.958;2024-03-22T07:08:37;22.35;;;14.32;;
74229;SDS011;62589;12.568;99.958;2024-03-22T07:11:07;25.55;;;15.32;;
74229;SDS011;62589;12.568;99.958;2024-03-22T07:13:34;22.60;;;14.63;;
74229;SDS011;62589;12.568;99.958;2024-03-22T07:16:01;23.33;;;14.65;;
74229;SDS011;62589;12.568;99.958;2024-03-22T07:18:29;23.00;;;15.48;;
74229;SDS011;62589;12.568;99.958;2024-03-22T07:20:55;22.40;;;14.27;;
74229;SDS011;62589;12.568;99.958;2024-03-22T07:23:26;26.90;;;15.52;;
74229;SDS011;62589;12.568;99.958;2024-03-22T07:25:53;25.73;;;15.30;;
74229;SDS011;62589;12.568;99.958;2024-03-22T07:28:20;23.60;;;14.93;;
74229;SDS011;62589;12.568;99.958;2024-03-22T07:30:47;23.67;;;14.13;;
74229;SDS011;62589;12.568;99.958;2024-03-22T07:33:13;21.02;;;14.18;;
74229;SDS011;62589;12.568;99.958;2024-03-22T07:35:42;23.88;;;14.30;;
74229;SDS011;62589;12.568;99.958;2024-03-22T07:38:09;22.60;;;14.90;;
74229;SDS011;62589;12.568;99.958;2024-03-22T07:40:36;21.02;;;14.70;;
74229;SDS011;62589;12.568;99.958;2024-03-22T07:43:03;25.85;;;14.68;;
74229;SDS011;62589;12.568;99.958;2024-03-22T07:45:33;23.40;;;14.63;;
74229;SDS011;62589;12.568;99.958;2024-03-22T07:48:00;27.92;;;15.35;;
74229;SDS011;62589;12.568;99.958;2024-03-22T07:50:27;21.95;;;15.07;;
74229;SDS011;62589;12.568;99.958;2024-03-22T07:53:06;24.85;;;16.30;;
74229;SDS011;62589;12.568;99.958;2024-03-22T07:55:33;26.02;;;15.00;;
74229;SDS011;62589;12.568;99.958;2024-03-22T07:58:00;29.42;;;15.50;;
74229;SDS011;62589;12.568;99.958;2024-03-22T08:00:27;24.15;;;14.40;;
74229;SDS011;62589;12.568;99.958;2024-03-22T08:02:54;22.40;;;14.93;;
74229;SDS011;62589;12.568;99.958;2024-03-22T08:05:21;22.83;;;14.65;;
74229;SDS011;62589;12.568;99.958;2024-03-22T08:07:47;23.85;;;15.18;;
74229;SDS011;62589;12.568;99.958;2024-03-22T08:10:14;24.42;;;15.23;;
74229;SDS011;62589;12.568;99.958;2024-03-22T08:12:41;22.92;;;15.35;;
74229;SDS011;62589;12.568;99.958;2024-03-22T08:15:08;21.10;;;14.85;;
74229;SDS011;62589;12.568;99.958;2024-03-22T08:17:35;24.75;;;15.13;;
74229;SDS011;62589;12.568;99.958;2024-03-22T08:20:02;23.17;;;15.52;;
74229;SDS011;62589;12.568;99.958;2024-03-22T08:22:30;23.80;;;14.40;;
74229;SDS011;62589;12.568;99.958;2024-03-22T08:24:56;21.65;;;14.98;;
74229;SDS011;62589;12.568;99.958;2024-03-22T08:27:23;23.85;;;15.45;;
74229;SDS011;62589;12.568;99.958;2024-03-22T08:29:50;22.65;;;15.68;;
74229;SDS011;62589;12.568;99.958;2024-03-22T08:32:19;24.58;;;15.50;;
74229;SDS011;62589;12.568;99.958;2024-03-22T08:34:45;24.55;;;15.15;;
74229;SDS011;62589;12.568;99.958;2024-03-22T08:37:12;23.13;;;15.43;;
74229;SDS011;62589;12.568;99.958;2024-03-22T08:39:38;24.05;;;15.15;;
74229;SDS011;62589;12.568;99.958;2024-03-22T08:42:06;24.50;;;14.77;;
74229;SDS011;62589;12.568;99.958;2024-03-22T08:44:35;25.20;;;14.52;;
74229;SDS011;62589;12.568;99.958;2024-03-22T08:47:02;22.20;;;15.38;;
74229;SDS011;62589;12.568;99.958;2024-03-22T08:49:29;19.30;;;14.18;;
74229;SDS011;62589;12.568;99.958;2024-03-22T08:51:55;21.48;;;14.70;;
74229;SDS011;62589;12.568;99.958;2024-03-22T08:54:22;25.88;;;14.93;;
74229;SDS011;62589;12.568;99.958;2024-03-22T08:56:49;23.98;;;14.10;;
74229;SDS011;62589;12.568;99.958;2024-03-22T08:59:15;21.92;;;14.52;;
74229;SDS011;62589;12.568;99.958;2024-03-22T09:01:42;21.75;;;13.93;;
74229;SDS011;62589;12.568;99.958;2024-03-22T09:04:08;25.33;;;14.75;;
74229;SDS011;62589;12.568;99.958;2024-03-22T09:06:35;27.83;;;14.57;;
74229;SDS011;62589;12.568;99.958;2024-03-22T09:09:02;23.88;;;13.80;;
74229;SDS011;62589;12.568;99.958;2024-03-22T09:11:28;18.70;;;14.23;;
74229;SDS011;62589;12.568;99.958;2024-03-22T09:13:55;23.33;;;14.75;;
74229;SDS011;62589;12.568;99.958;2024-03-22T09:16:22;24.98;;;14.80;;
74229;SDS011;62589;12.568;99.958;2024-03-22T09:18:49;24.20;;;14.85;;
74229;SDS011;62589;12.568;99.958;2024-03-22T09:21:16;21.92;;;14.70;;
74229;SDS011;62589;12.568;99.958;2024-03-22T09:23:43;22.67;;;14.40;;
74229;SDS011;62589;12.568;99.958;2024-03-22T09:26:10;23.63;;;14.23;;
74229;SDS011;62589;12.568;99.958;2024-03-22T09:28:37;25.77;;;14.35;;
74229;SDS011;62589;12.568;99.958;2024-03-22T09:31:04;24.50;;;15.40;;
74229;SDS011;62589;12.568;99.958;2024-03-22T09:33:34;24.65;;;13.93;;
74229;SDS011;62589;12.568;99.958;2024-03-22T09:36:01;24.60;;;15.18;;
74229;SDS011;62589;12.568;99.958;2024-03-22T09:38:28;22.67;;;15.38;;
74229;SDS011;62589;12.568;99.958;2024-03-22T09:40:55;23.13;;;14.88;;
74229;SDS011;62589;12.568;99.958;2024-03-22T09:43:22;23.63;;;15.05;;
74229;SDS011;62589;12.568;99.958;2024-03-22T09:45:52;26.77;;;14.77;;
74229;SDS011;62589;12.568;99.958;2024-03-22T09:48:20;22.13;;;15.30;;
74229;SDS011;62589;12.568;99.958;2024-03-22T09:50:46;21.05;;;15.32;;
74229;SDS011;62589;12.568;99.958;2024-03-22T09:53:15;26.83;;;15.50;;
74229;SDS011;62589;12.568;99.958;2024-03-22T09:55:46;19.73;;;13.70;;
74229;SDS011;62589;12.568;99.958;2024-03-22T09:58:13;17.73;;;13.90;;
74229;SDS011;62589;12.568;99.958;2024-03-22T10:00:42;23.13;;;14.98;;
74229;SDS011;62589;12.568;99.958;2024-03-22T10:03:09;24.83;;;15.30;;
74229;SDS011;62589;12.568;99.958;2024-03-22T10:05:36;19.45;;;14.35;;
74229;SDS011;62589;12.568;99.958;2024-03-22T10:08:03;21.95;;;15.63;;
74229;SDS011;62589;12.568;99.958;2024-03-22T10:10:33;23.83;;;15.18;;
74229;SDS011;62589;12.568;99.958;2024-03-22T10:13:00;21.75;;;14.82;;
74229;SDS011;62589;12.568;99.958;2024-03-22T10:15:27;17.27;;;13.50;;
74229;SDS011;62589;12.568;99.958;2024-03-22T10:17:58;23.17;;;13.70;;
74229;SDS011;62589;12.568;99.958;2024-03-22T10:20:25;22.73;;;13.85;;
74229;SDS011;62589;12.568;99.958;2024-03-22T10:22:55;21.35;;;14.07;;
74229;SDS011;62589;12.568;99.958;2024-03-22T10:25:23;21.30;;;14.40;;
74229;SDS011;62589;12.568;99.958;2024-03-22T10:27:54;21.42;;;13.98;;
74229;SDS011;62589;12.568;99.958;2024-03-22T10:30:21;20.90;;;14.00;;
74229;SDS011;62589;12.568;99.958;2024-03-22T10:32:49;22.85;;;14.85;;
74229;SDS011;62589;12.568;99.958;2024-03-22T10:35:16;20.10;;;13.85;;
74229;SDS011;62589;12.568;99.958;2024-03-22T10:37:43;22.73;;;14.30;;
74229;SDS011;62589;12.568;99.958;2024-03-22T10:40:10;20.15;;;13.85;;
74229;SDS011;62589;12.568;99.958;2024-03-22T10:42:38;23.40;;;14.32;;
74229;SDS011;62589;12.568;99.958;2024-03-22T10:45:06;20.05;;;14.02;;
74229;SDS011;62589;12.568;99.958;2024-03-22T10:47:35;19.13;;;13.93;;
74229;SDS011;62589;12.568;99.958;2024-03-22T10:50:06;24.60;;;14.02;;
74229;SDS011;62589;12.568;99.958;2024-03-22T10:52:52;23.52;;;14.30;;
74229;SDS011;62589;12.568;99.958;2024-03-22T10:55:28;22.45;;;14.13;;
74229;SDS011;62589;12.568;99.958;2024-03-22T10:57:59;24.73;;;14.48;;
74229;SDS011;62589;12.568;99.958;2024-03-22T11:00:29;23.42;;;14.40;;
74229;SDS011;62589;12.568;99.958;2024-03-22T11:02:57;23.10;;;14.88;;
74229;SDS011;62589;12.568;99.958;2024-03-22T11:05:25;19.85;;;14.23;;
74229;SDS011;62589;12.568;99.958;2024-03-22T11:07:59;22.23;;;14.85;;
74229;SDS011;62589;12.568;99.958;2024-03-22T11:10:29;24.80;;;14.57;;
74229;SDS011;62589;12.568;99.958;2024-03-22T11:13:02;24.00;;;15.52;;
74229;SDS011;62589;12.568;99.958;2024-03-22T11:15:33;21.45;;;14.45;;
74229;SDS011;62589;12.568;99.958;2024-03-22T11:18:00;22.30;;;14.85;;
74229;SDS011;62589;12.568;99.958;2024-03-22T11:20:30;24.67;;;14.52;;
74229;SDS011;62589;12.568;99.958;2024-03-22T11:22:56;22.98;;;14.80;;
74229;SDS011;62589;12.568;99.958;2024-03-22T11:25:23;22.63;;;15.10;;
74229;SDS011;62589;12.568;99.958;2024-03-22T11:27:50;24.88;;;15.10;;
74229;SDS011;62589;12.568;99.958;2024-03-22T11:30:16;26.75;;;15.93;;
74229;SDS011;62589;12.568;99.958;2024-03-22T11:32:43;21.90;;;15.40;;
74229;SDS011;62589;12.568;99.958;2024-03-22T11:35:11;22.13;;;15.70;;
74229;SDS011;62589;12.568;99.958;2024-03-22T11:37:38;24.02;;;16.05;;
74229;SDS011;62589;12.568;99.958;2024-03-22T11:40:08;24.42;;;15.52;;
74229;SDS011;62589;12.568;99.958;2024-03-22T11:42:39;22.40;;;15.27;;
74229;SDS011;62589;12.568;99.958;2024-03-22T11:45:08;24.60;;;15.93;;
74229;SDS011;62589;12.568;99.958;2024-03-22T11:47:37;29.63;;;16.13;;
74229;SDS011;62589;12.568;99.958;2024-03-22T11:50:03;26.00;;;16.15;;
74229;SDS011;62589;12.568;99.958;2024-03-22T11:52:31;27.02;;;15.20;;
74229;SDS011;62589;12.568;99.958;2024-03-22T11:54:57;24.02;;;16.55;;
74229;SDS011;62589;12.568;99.958;2024-03-22T11:57:24;24.33;;;15.75;;
74229;SDS011;62589;12.568;99.958;2024-03-22T11:59:51;27.98;;;16.10;;
74229;SDS011;62589;12.568;99.958;2024-03-22T12:02:18;31.77;;;17.58;;
74229;SDS011;62589;12.568;99.958;2024-03-22T12:04:46;28.90;;;15.90;;
74229;SDS011;62589;12.568;99.958;2024-03-22T12:07:13;24.40;;;15.75;;
74229;SDS011;62589;12.568;99.958;2024-03-22T12:09:43;26.98;;;15.63;;
74229;SDS011;62589;12.568;99.958;2024-03-22T12:12:11;31.10;;;17.35;;
74229;SDS011;62589;12.568;99.958;2024-03-22T12:14:39;34.70;;;16.63;;
74229;SDS011;62589;12.568;99.958;2024-03-22T12:17:06;26.95;;;16.90;;
74229;SDS011;62589;12.568;99.958;2024-03-22T12:19:34;26.63;;;16.55;;
74229;SDS011;62589;12.568;99.958;2024-03-22T12:22:01;28.58;;;17.30;;
74229;SDS011;62589;12.568;99.958;2024-03-22T12:24:31;28.10;;;15.80;;
74229;SDS011;62589;12.568;99.958;2024-03-22T12:26:58;28.23;;;16.13;;
74229;SDS011;62589;12.568;99.958;2024-03-22T12:29:25;102.25;;;58.35;;
74229;SDS011;62589;12.568;99.958;2024-03-22T12:31:51;57.63;;;32.40;;
74229;SDS011;62589;12.568;99.958;2024-03-22T12:34:18;77.93;;;43.17;;
74229;SDS011;62589;12.568;99.958;2024-03-22T12:36:45;98.10;;;50.70;;
74229;SDS011;62589;12.568;99.958;2024-03-22T12:39:11;39.95;;;23.42;;
74229;SDS011;62589;12.568;99.958;2024-03-22T12:41:38;46.08;;;25.27;;
74229;SDS011;62589;12.568;99.958;2024-03-22T12:44:05;49.65;;;26.08;;
74229;SDS011;62589;12.568;99.958;2024-03-22T12:46:31;51.03;;;27.23;;
74229;SDS011;62589;12.568;99.958;2024-03-22T12:48:58;32.65;;;18.00;;
74229;SDS011;62589;12.568;99.958;2024-03-22T12:51:25;34.53;;;20.13;;
74229;SDS011;62589;12.568;99.958;2024-03-22T12:53:51;25.98;;;16.05;;
74229;SDS011;62589;12.568;99.958;2024-03-22T12:56:18;32.00;;;17.40;;
74229;SDS011;62589;12.568;99.958;2024-03-22T12:58:44;27.52;;;14.88;;
74229;SDS011;62589;12.568;99.958;2024-03-22T13:01:12;23.55;;;15.40;;
74229;SDS011;62589;12.568;99.958;2024-03-22T13:03:39;30.15;;;16.35;;
74229;SDS011;62589;12.568;99.958;2024-03-22T13:06:06;24.27;;;15.73;;
74229;SDS011;62589;12.568;99.958;2024-03-22T13:08:33;29.58;;;15.55;;
74229;SDS011;62589;12.568;99.958;2024-03-22T13:10:59;24.48;;;14.90;;
74229;SDS011;62589;12.568;99.958;2024-03-22T13:13:26;26.83;;;15.25;;
74229;SDS011;62589;12.568;99.958;2024-03-22T13:15:56;36.67;;;15.77;;
74229;SDS011;62589;12.568;99.958;2024-03-22T13:18:23;24.20;;;11.35;;
74229;SDS011;62589;12.568;99.958;2024-03-22T13:20:50;21.02;;;7.53;;
74229;SDS011;62589;12.568;99.958;2024-03-22T13:23:17;22.63;;;11.63;;
74229;SDS011;62589;12.568;99.958;2024-03-22T13:25:43;17.60;;;11.57;;
74229;SDS011;62589;12.568;99.958;2024-03-22T13:28:10;19.20;;;11.35;;
74229;SDS011;62589;12.568;99.958;2024-03-22T13:30:37;23.98;;;13.98;;
74229;SDS011;62589;12.568;99.958;2024-03-22T13:33:04;24.80;;;13.90;;
74229;SDS011;62589;12.568;99.958;2024-03-22T13:35:33;19.80;;;12.57;;
74229;SDS011;62589;12.568;99.958;2024-03-22T13:38:00;18.25;;;12.05;;
74229;SDS011;62589;12.568;99.958;2024-03-22T13:40:27;21.15;;;12.13;;
74229;SDS011;62589;12.568;99.958;2024-03-22T13:42:53;19.98;;;12.95;;
74229;SDS011;62589;12.568;99.958;2024-03-22T13:45:20;20.08;;;13.27;;
74229;SDS011;62589;12.568;99.958;2024-03-22T13:47:47;23.20;;;16.23;;
74229;SDS011;62589;12.568;99.958;2024-03-22T13:50:13;23.55;;;16.10;;
74229;SDS011;62589;12.568;99.958;2024-03-22T13:52:40;23.52;;;17.38;;
74229;SDS011;62589;12.568;99.958;2024-03-22T13:55:07;26.08;;;16.77;;
74229;SDS011;62589;12.568;99.958;2024-03-22T13:57:33;24.45;;;17.13;;
74229;SDS011;62589;12.568;99.958;2024-03-22T14:00:00;20.92;;;16.63;;
74229;SDS011;62589;12.568;99.958;2024-03-22T14:02:32;22.30;;;16.17;;
74229;SDS011;62589;12.568;99.958;2024-03-22T14:04:58;20.35;;;15.38;;
74229;SDS011;62589;12.568;99.958;2024-03-22T14:07:25;26.90;;;16.65;;
74229;SDS011;62589;12.568;99.958;2024-03-22T14:09:52;22.27;;;15.98;;